CST,Max TemperatureF,Mean TemperatureF,Min TemperatureF,Max Dew PointF,MeanDew PointF,Min DewpointF,Max Humidity, Mean Humidity, Min Humidity, Max Sea Level PressureIn, Mean Sea Level PressureIn, Min Sea Level PressureIn, Max VisibilityMiles, Mean VisibilityMiles, Min VisibilityMiles, Max Wind SpeedMPH, Mean Wind SpeedMPH, Max Gust SpeedMPH,PrecipitationIn, CloudCover, Events, WindDirDegrees
2013-1-1,50,43,35,40,31,24,89,66,42,30.30,30.19,30.03,10,10,6,14,8,17,0.00,3,,24
2013-1-2,47,38,28,27,25,23,85,65,45,30.36,30.30,30.24,10,10,9,12,4,14,0.00,0,,96
2013-1-3,42,32,22,34,27,20,96,74,51,30.50,30.44,30.35,10,8,2,15,5,21,0.08,7,Snow,26
2013-1-4,36,34,32,34,32,30,100,95,89,30.51,30.44,30.35,10,7,0,10,4,13,0.31,8,Fog-Snow,58
2013-1-5,54,44,33,35,33,29,92,67,41,30.37,30.30,30.22,10,10,7,18,8,23,0.00,3,,244
2013-1-6,55,41,26,30,27,24,92,65,38,30.47,30.37,30.32,10,10,10,10,4,16,0.00,0,,174
2013-1-7,56,41,26,32,28,23,85,60,35,30.31,30.16,30.04,10,10,10,13,4,16,0.00,1,,123
2013-1-8,49,43,36,48,43,34,100,87,73,30.03,29.98,29.91,10,5,1,21,8,26,0.08,8,Rain,42
2013-1-9,50,48,45,48,45,43,100,96,92,30.14,30.03,29.88,10,6,2,30,10,37,0.93,8,Rain,349
2013-1-10,62,53,43,45,42,39,92,69,46,30.04,29.97,29.93,10,10,10,23,11,26,0.00,4,,237
2013-1-11,72,60,48,54,47,40,83,62,40,29.91,29.81,29.73,10,10,10,28,15,36,0.00,1,,198
2013-1-12,60,48,35,55,39,25,86,63,40,30.03,29.83,29.77,10,10,10,18,10,24,0.00,6,,3
2013-1-13,42,35,27,25,22,20,81,63,45,30.27,30.19,30.04,10,10,10,16,9,20,0.00,0,,20
2013-1-14,44,34,24,24,20,15,78,61,43,30.31,30.23,30.16,10,10,10,18,10,23,0.00,1,,50
2013-1-15,42,33,24,22,20,18,81,59,36,30.31,30.23,30.16,10,10,10,18,8,21,0.00,5,,8
2013-1-16,55,38,20,29,22,15,84,54,24,30.37,30.30,30.20,10,10,10,25,9,33,0.00,0,,272
2013-1-17,62,47,31,31,28,27,82,55,27,30.53,30.46,30.37,10,10,10,13,5,17,0.00,0,,307
2013-1-18,65,46,26,32,29,24,92,59,26,30.50,30.37,30.23,10,10,10,18,8,24,0.00,0,,203
2013-1-19,71,55,39,34,31,26,70,45,19,30.23,30.17,30.09,10,10,10,23,9,26,0.00,0,,220
2013-1-20,72,51,29,33,28,25,92,55,17,30.26,30.16,30.07,10,10,10,10,3,12,0.00,0,,245
2013-1-21,58,44,30,35,31,27,78,59,40,30.30,30.22,30.13,10,10,9,15,5,18,0.00,0,,41
2013-1-22,70,52,33,51,40,28,86,63,39,30.30,30.22,30.16,10,10,9,22,6,28,0.00,1,,194
2013-1-23,78,65,52,55,50,42,93,61,29,30.27,30.18,30.12,10,10,6,18,10,24,0.00,1,,214
2013-1-24,83,66,49,57,49,42,96,60,24,30.20,30.11,30.03,10,10,7,21,10,25,0.00,0,,216
2013-1-25,75,61,47,53,45,35,86,59,31,30.16,30.08,30.01,10,10,7,16,9,21,0.00,0,,284
2013-1-26,74,58,41,58,46,35,84,69,53,30.17,30.09,29.98,10,10,10,14,6,18,0.00,2,,86
2013-1-27,79,69,59,57,54,51,78,59,39,30.02,29.93,29.86,10,10,10,23,12,30,0.00,2,,188
2013-1-28,79,72,64,61,59,57,84,66,48,29.96,29.84,29.72,10,10,10,30,16,37,0.00,1,,182
2013-1-29,71,61,50,63,39,14,87,54,21,29.84,29.69,29.60,10,10,5,45,22,55,0.03,2,Rain-Thunderstorm,252
2013-1-30,55,44,32,26,17,9,59,38,16,30.20,30.10,29.86,10,10,10,28,13,33,0.00,0,,273
2013-1-31,69,49,28,25,18,14,58,36,14,30.25,30.20,30.12,10,10,10,26,9,32,0.00,0,,229